Time;durP1;ratioP1;P1;durP2;ratioP2;P2;SDS_P1;SDS_P2;PMS_P1;PMS_P2;Temp;Humidity;BMP_temperature;BMP_pressure;BME280_temperature;BME280_humidity;BME280_pressure;Samples;Min_cycle;Max_cycle;Signal;HPM_P1;HPM_P2
2021/12/13 00:02:03;;;;;;;;;15.00;15.00;;;;;11.96;72.45;102492.94;5090946;27;49875;-67
2021/12/13 00:04:34;;;;;;;;;14.75;14.75;;;;;12.04;72.41;102500.31;5090884;27;49920;-67
2021/12/13 00:07:15;;;;;;;;;18.25;17.00;;;;;11.94;72.30;102477.09;5090845;27;49702;-67
2021/12/13 00:09:44;;;;;;;;;12.50;12.25;;;;;11.84;72.30;102466.09;5072188;27;51681;-67
2021/12/13 00:12:11;;;;;;;;;15.00;13.50;;;;;11.98;72.59;102493.94;5090825;27;49873;-68
2021/12/13 00:14:46;;;;;;;;;15.25;13.50;;;;;11.90;72.61;102469.00;5090612;27;49936;-68
2021/12/13 00:17:17;;;;;;;;;14.25;14.25;;;;;11.99;72.72;102480.81;5091052;27;49902;-68
2021/12/13 00:19:50;;;;;;;;;16.00;14.50;;;;;11.98;72.55;102479.03;5090586;27;52835;-68
2021/12/13 00:22:32;;;;;;;;;15.00;12.25;;;;;11.96;72.51;102478.03;5090437;27;49767;-68
2021/12/13 00:25:04;;;;;;;;;18.00;16.00;;;;;11.96;72.72;102475.41;5090623;27;49797;-67
2021/12/13 00:27:30;;;;;;;;;11.25;11.25;;;;;11.94;72.64;102473.56;5090829;27;49865;-66
2021/12/13 00:30:18;;;;;;;;;16.00;13.00;;;;;11.92;72.50;102467.34;5090308;27;50485;-67
2021/12/13 00:33:34;;;;;;;;;10.25;10.25;;;;;11.89;72.77;102473.38;5093055;27;49671;-67
2021/12/13 00:36:09;;;;;;;;;15.50;14.00;;;;;11.87;72.93;102472.41;5037034;27;49685;-67
2021/12/13 00:38:44;;;;;;;;;14.50;13.00;;;;;11.86;72.64;102477.59;5094404;27;49828;-67
2021/12/13 00:41:19;;;;;;;;;12.75;11.00;;;;;11.86;72.76;102473.22;5093918;27;49813;-67
2021/12/13 00:43:54;;;;;;;;;19.75;12.00;;;;;11.86;72.61;102474.97;5093784;27;49813;-67
2021/12/13 00:46:23;;;;;;;;;11.00;10.75;;;;;11.81;72.59;102468.63;5094007;27;49827;-67
2021/12/13 00:48:53;;;;;;;;;11.25;9.50;;;;;11.84;72.86;102472.25;5093857;27;49695;-67
2021/12/13 00:51:27;;;;;;;;;12.00;11.00;;;;;11.84;72.77;102474.91;5093452;27;50767;-67
2021/12/13 00:53:56;;;;;;;;;11.25;9.50;;;;;11.85;72.51;102479.31;5093688;27;49912;-67
2021/12/13 00:56:56;;;;;;;;;13.75;11.00;;;;;11.83;72.35;102481.00;5093896;27;49583;-67
2021/12/13 00:59:35;;;;;;;;;15.25;11.75;;;;;11.68;72.22;102446.13;5094071;27;49871;-67
2021/12/13 01:02:03;;;;;;;;;15.50;15.25;;;;;11.87;72.04;102484.66;5093467;27;49956;-67
2021/12/13 01:04:45;;;;;;;;;11.25;9.75;;;;;11.88;72.39;102484.75;5093657;27;49798;-67
2021/12/13 01:07:33;;;;;;;;;16.00;11.75;;;;;11.88;72.75;102475.94;5075031;27;50020;-67
2021/12/13 01:10:08;;;;;;;;;17.00;14.50;;;;;11.88;72.40;102484.75;5045405;27;49844;-68
2021/12/13 01:12:34;;;;;;;;;11.25;10.25;;;;;11.89;72.74;102486.53;5093497;27;50221;-68
2021/12/13 01:15:05;;;;;;;;;11.50;11.50;;;;;11.86;72.58;102470.59;5093339;27;50026;-69
2021/12/13 01:17:55;;;;;;;;;13.25;11.75;;;;;11.92;72.19;102480.50;5093592;27;49983;-68
2021/12/13 01:20:56;;;;;;;;;17.75;16.75;;;;;11.85;72.40;102479.31;5093363;27;49808;-68
2021/12/13 01:23:39;;;;;;;;;10.75;10.75;;;;;11.81;72.47;102461.63;5074668;27;50051;-67
2021/12/13 01:28:49;;;;;;;;;12.00;10.50;;;;;11.83;72.82;102459.94;5093405;27;49706;-68
2021/12/13 01:31:24;;;;;;;;;11.50;10.75;;;;;11.88;72.66;102468.94;5093520;27;49751;-69
2021/12/13 01:33:50;;;;;;;;;11.25;10.00;;;;;11.84;72.51;102461.75;5092986;27;50548;-68
2021/12/13 01:36:24;;;;;;;;;11.75;8.75;;;;;11.87;72.76;102480.31;5093032;27;49796;-68
2021/12/13 01:38:57;;;;;;;;;10.50;9.00;;;;;11.80;73.05;102456.31;5093102;27;49779;-67
2021/12/13 01:41:29;;;;;;;;;8.00;8.00;;;;;11.85;72.63;102478.44;5093215;27;49692;-67
2021/12/13 01:44:11;;;;;;;;;13.50;10.00;;;;;11.84;72.70;102477.53;5092411;27;50964;-67
2021/12/13 01:46:42;;;;;;;;;11.25;10.50;;;;;11.75;72.69;102461.31;5092840;27;49656;-68
2021/12/13 01:49:08;;;;;;;;;10.00;9.25;;;;;11.92;72.81;102483.13;5092778;27;49731;-67
2021/12/13 01:51:35;;;;;;;;;13.25;12.25;;;;;11.89;72.16;102469.84;5092868;27;49817;-67
2021/12/13 01:54:09;;;;;;;;;7.75;7.75;;;;;11.90;72.66;102488.34;5092671;27;50996;-67
2021/12/13 01:56:55;;;;;;;;;12.75;10.25;;;;;11.90;72.64;102488.34;5074132;27;50060;-67
2021/12/13 02:01:59;;;;;;;;;12.50;10.25;;;;;11.86;72.58;102485.47;5092823;27;49744;-67
2021/12/13 02:04:25;;;;;;;;;13.25;11.00;;;;;11.85;72.70;102483.69;5092617;27;49710;-67
2021/12/13 02:07:01;;;;;;;;;9.00;9.00;;;;;11.80;72.93;102478.25;5092392;27;49795;-68
2021/12/13 02:09:31;;;;;;;;;5.50;5.50;;;;;11.85;73.00;102488.94;5092486;27;49633;-67
2021/12/13 02:12:00;;;;;;;;;11.25;11.25;;;;;11.83;72.95;102483.63;5092562;27;49612;-67
2021/12/13 02:14:32;;;;;;;;;11.00;10.00;;;;;11.83;73.07;102481.00;5092367;27;49619;-67
2021/12/13 02:17:10;;;;;;;;;10.50;9.00;;;;;11.83;72.97;102485.38;5092275;27;49817;-66
2021/12/13 02:19:41;;;;;;;;;12.25;10.75;;;;;11.83;72.83;102483.63;5092228;27;49646;-67
2021/12/13 02:22:22;;;;;;;;;10.00;10.00;;;;;11.85;73.02;102495.13;5092533;27;49849;-67
2021/12/13 02:24:50;;;;;;;;;10.00;10.00;;;;;11.75;72.83;102467.47;5092250;27;49808;-68
2021/12/13 02:27:25;;;;;;;;;9.50;9.25;;;;;11.88;72.88;102491.75;5092350;27;49588;-67
2021/12/13 02:29:54;;;;;;;;;7.75;7.75;;;;;11.88;72.74;102491.75;5092102;27;49758;-67
2021/12/13 02:32:25;;;;;;;;;10.50;9.00;;;;;11.75;72.91;102466.56;5092273;27;49985;-68
2021/12/13 02:34:51;;;;;;;;;9.00;9.00;;;;;11.89;72.94;102493.53;5091967;27;50473;-67
2021/12/13 02:37:17;;;;;;;;;10.00;10.00;;;;;11.83;72.95;102477.47;5091735;27;49691;-67
2021/12/13 02:39:49;;;;;;;;;10.75;9.25;;;;;11.74;72.57;102456.88;5091990;27;49683;-67
2021/12/13 02:42:18;;;;;;;;;10.50;10.50;;;;;11.90;72.60;102492.69;5092261;27;49521;-67
2021/12/13 02:44:48;;;;;;;;;12.00;10.00;;;;;11.89;72.95;102489.16;5091907;27;50726;-67
2021/12/13 02:47:34;;;;;;;;;14.25;12.00;;;;;11.88;72.75;102490.00;5092045;27;49725;-68
2021/12/13 02:50:01;;;;;;;;;12.25;10.75;;;;;11.87;72.81;102479.38;5091527;27;49671;-67
2021/12/13 02:52:27;;;;;;;;;12.00;10.25;;;;;11.52;72.75;102409.47;5091757;27;49695;-67
2021/12/13 02:55:00;;;;;;;;;9.25;9.25;;;;;11.87;72.77;102474.13;5090730;27;49697;-67
2021/12/13 02:57:31;;;;;;;;;11.00;11.00;;;;;11.90;72.81;102484.81;5091803;27;49722;-67
2021/12/13 03:00:09;;;;;;;;;9.00;9.00;;;;;11.92;73.02;102486.66;5091848;27;50223;-67
2021/12/13 03:02:41;;;;;;;;;12.00;12.00;;;;;11.82;72.60;102470.41;5092161;27;49984;-68
2021/12/13 03:05:22;;;;;;;;;14.00;12.00;;;;;11.90;73.21;102483.06;5091344;27;49789;-73
2021/12/13 03:07:53;;;;;;;;;10.75;9.00;;;;;11.90;73.04;102482.16;5091702;27;49841;-74
2021/12/13 03:10:26;;;;;;;;;11.50;11.50;;;;;11.87;73.20;102477.69;5091538;27;49836;-73
2021/12/13 03:12:51;;;;;;;;;7.75;7.75;;;;;11.86;73.04;102485.47;5091910;27;49762;-71
2021/12/13 03:15:22;;;;;;;;;12.75;11.00;;;;;11.87;72.97;102482.94;5073058;27;52651;-72
2021/12/13 03:17:53;;;;;;;;;13.50;11.75;;;;;11.88;73.05;102478.59;5091581;27;49781;-72
2021/12/13 03:20:18;;;;;;;;;17.00;12.75;;;;;11.91;72.64;102479.59;5091522;27;49757;-68
2021/12/13 03:23:21;;;;;;;;;13.00;10.25;;;;;11.93;73.01;102474.41;5091323;27;49861;-69
2021/12/13 03:26:19;;;;;;;;;12.25;10.00;;;;;11.73;73.10;102437.56;5091197;27;50807;-67
2021/12/13 03:29:05;;;;;;;;;11.75;11.50;;;;;11.92;73.02;102475.22;5091267;27;49768;-68
2021/12/13 03:31:36;;;;;;;;;11.75;10.50;;;;;11.90;72.85;102467.28;5072739;27;49610;-68
2021/12/13 03:34:22;;;;;;;;;15.75;10.75;;;;;11.92;73.03;102462.06;5091459;27;49809;-67
2021/12/13 03:37:06;;;;;;;;;10.75;10.75;;;;;11.92;72.70;102462.97;5089425;27;51088;-73
2021/12/13 03:39:55;;;;;;;;;12.00;10.75;;;;;11.93;72.92;102472.66;5091276;27;49765;-73
2021/12/13 03:42:30;;;;;;;;;12.75;11.50;;;;;11.88;72.69;102471.59;5091215;27;49671;-73
2021/12/13 03:45:03;;;;;;;;;12.25;12.25;;;;;11.90;72.79;102463.75;5091190;27;49757;-71
2021/12/13 03:47:36;;;;;;;;;12.75;10.75;;;;;11.89;72.45;102457.59;5091070;27;49829;-72
2021/12/13 03:50:09;;;;;;;;;10.25;10.25;;;;;11.62;72.33;102423.06;5090714;27;49726;-73
2021/12/13 03:52:35;;;;;;;;;9.25;9.25;;;;;11.84;72.58;102459.09;5090835;27;49808;-68
2021/12/13 03:55:04;;;;;;;;;6.25;6.25;;;;;11.77;72.21;102446.47;5091163;27;49767;-67
2021/12/13 03:57:31;;;;;;;;;12.75;10.25;;;;;11.82;71.84;102447.63;5090743;27;52059;-67
2021/12/13 03:59:59;;;;;;;;;8.75;8.75;;;;;11.79;72.18;102446.56;5072082;27;49838;-67
2021/12/13 04:02:35;;;;;;;;;9.50;9.50;;;;;11.68;72.31;102431.22;5090945;27;50020;-67
2021/12/13 04:05:10;;;;;;;;;10.50;8.00;;;;;11.79;72.09;102451.84;5091120;27;49646;-68
2021/12/13 04:07:41;;;;;;;;;9.75;8.25;;;;;11.51;72.43;102402.41;5094001;27;50644;-67
2021/12/13 04:10:29;;;;;;;;;10.50;8.75;;;;;11.38;72.19;102378.19;5094546;27;49685;-68
2021/12/13 04:12:57;;;;;;;;;12.50;9.50;;;;;11.80;72.16;102458.94;5094471;27;49596;-67
2021/12/13 04:15:34;;;;;;;;;11.00;10.50;;;;;11.66;72.18;102435.50;5094708;27;50055;-67
2021/12/13 04:18:12;;;;;;;;;11.75;9.00;;;;;11.80;72.12;102451.94;5094151;27;49632;-67
2021/12/13 04:20:39;;;;;;;;;12.00;10.25;;;;;11.80;72.21;102459.81;5094102;27;49860;-68
2021/12/13 04:23:13;;;;;;;;;8.50;8.50;;;;;11.79;71.94;102452.72;5094233;27;49778;-68
2021/12/13 04:25:42;;;;;;;;;10.50;9.00;;;;;11.79;71.98;102458.00;5094453;27;49676;-68
2021/12/13 04:28:13;;;;;;;;;10.75;10.00;;;;;11.77;71.90;102459.63;5094133;27;50579;-67
2021/12/13 04:30:46;;;;;;;;;14.25;11.75;;;;;11.76;72.08;102458.75;5094037;27;49885;-67
2021/12/13 04:33:24;;;;;;;;;9.00;9.00;;;;;11.77;72.05;102459.63;5094255;27;49845;-67
2021/12/13 04:35:52;;;;;;;;;11.50;10.75;;;;;11.78;71.66;102456.19;5094047;27;49806;-67
2021/12/13 04:38:22;;;;;;;;;11.50;11.50;;;;;11.73;72.36;102441.94;5093842;27;49662;-67
2021/12/13 04:40:51;;;;;;;;;11.25;10.25;;;;;11.79;71.90;102451.84;5093755;27;49788;-67
2021/12/13 04:43:18;;;;;;;;;17.00;14.50;;;;;11.68;72.18;102432.97;5093914;27;49713;-67
2021/12/13 04:45:54;;;;;;;;;18.25;15.00;;;;;11.76;72.46;102453.47;5094097;27;49941;-67
2021/12/13 04:48:24;;;;;;;;;17.00;14.75;;;;;11.79;72.11;102465.00;5093705;27;50657;-67
2021/12/13 04:51:24;;;;;;;;;14.00;12.50;;;;;11.78;71.81;102465.84;5093597;27;50024;-68
2021/12/13 04:53:50;;;;;;;;;15.50;14.25;;;;;11.68;71.68;102446.13;5080005;27;49935;-69
2021/12/13 04:56:21;;;;;;;;;14.00;11.75;;;;;11.60;71.51;102440.53;5093689;27;49912;-68
2021/12/13 04:58:50;;;;;;;;;11.50;9.75;;;;;11.73;71.45;102476.13;5093567;27;49736;-68
2021/12/13 05:01:18;;;;;;;;;15.75;13.25;;;;;11.70;71.73;102471.66;5075147;27;49683;-68
2021/12/13 05:03:47;;;;;;;;;11.25;10.00;;;;;11.68;71.41;102473.31;5093484;27;49647;-67
2021/12/13 05:06:17;;;;;;;;;12.25;11.50;;;;;11.62;70.89;102462.53;5093737;27;49944;-66
2021/12/13 05:08:50;;;;;;;;;15.75;12.00;;;;;11.69;71.47;102477.75;5093455;27;50604;-67
2021/12/13 05:11:16;;;;;;;;;12.25;9.25;;;;;11.69;71.23;102488.28;5093343;27;49718;-67
2021/12/13 05:13:48;;;;;;;;;13.75;12.00;;;;;11.46;71.23;102466.19;5093432;27;49875;-67
2021/12/13 05:16:17;;;;;;;;;14.00;11.25;;;;;11.61;71.32;102480.88;5093476;27;49767;-67
2021/12/13 05:18:50;;;;;;;;;10.50;9.00;;;;;11.67;71.41;102483.75;5092466;27;51413;-67
2021/12/13 05:21:28;;;;;;;;;11.00;10.00;;;;;11.69;71.20;102475.13;5093114;27;49742;-66
2021/12/13 05:23:59;;;;;;;;;10.25;9.00;;;;;11.71;71.59;102475.19;5093445;27;49603;-67
2021/12/13 05:26:39;;;;;;;;;12.00;9.50;;;;;11.77;71.28;102485.94;5093406;27;49597;-67
2021/12/13 05:29:19;;;;;;;;;12.00;11.00;;;;;11.35;70.88;102411.34;5092895;27;49879;-67
2021/12/13 05:31:56;;;;;;;;;10.00;9.25;;;;;11.78;71.48;102485.16;5093156;27;49734;-67
2021/12/13 05:34:28;;;;;;;;;14.25;14.25;;;;;11.79;70.71;102486.94;5093078;27;49727;-67
2021/12/13 05:36:56;;;;;;;;;14.25;12.75;;;;;11.79;70.75;102486.94;5092952;27;49746;-71
2021/12/13 05:39:22;;;;;;;;;9.00;9.00;;;;;11.80;70.39;102488.78;5092844;27;50571;-71
2021/12/13 05:41:59;;;;;;;;;14.00;14.00;;;;;11.80;70.89;102485.25;5092915;27;50005;-71
2021/12/13 05:44:29;;;;;;;;;11.00;10.50;;;;;11.76;70.94;102479.78;5093174;27;49772;-73
2021/12/13 05:46:56;;;;;;;;;19.75;13.50;;;;;11.71;71.46;102459.41;5093059;27;49919;-72
2021/12/13 05:49:26;;;;;;;;;11.67;10.67;;;;;11.83;71.19;102490.63;5092433;27;50678;-73
2021/12/13 05:52:05;;;;;;;;;11.00;11.00;;;;;11.83;70.95;102483.63;5092504;27;49944;-68
2021/12/13 05:54:35;;;;;;;;;17.25;13.75;;;;;11.80;70.60;102488.78;5092750;27;49622;-67
2021/12/13 05:57:12;;;;;;;;;16.00;13.00;;;;;11.72;70.77;102484.88;5092888;27;50308;-68
2021/12/13 05:59:52;;;;;;;;;9.00;9.00;;;;;11.54;70.96;102463.91;5092655;27;49879;-67
2021/12/13 06:02:55;;;;;;;;;17.75;11.75;;;;;11.69;71.33;102483.00;5074354;27;49955;-67
2021/12/13 06:05:30;;;;;;;;;11.75;9.75;;;;;11.65;71.32;102482.78;5092489;27;49740;-67
2021/12/13 06:08:00;;;;;;;;;11.50;11.50;;;;;11.59;71.35;102470.28;5074175;27;49806;-68
2021/12/13 06:10:38;;;;;;;;;11.75;11.25;;;;;11.67;71.05;102487.28;5092305;27;49792;-67
2021/12/13 06:13:09;;;;;;;;;12.00;11.00;;;;;11.23;70.85;102410.81;5092514;27;49762;-68
2021/12/13 06:15:38;;;;;;;;;16.25;11.50;;;;;11.62;70.83;102480.94;5092544;27;49783;-68
2021/12/13 06:18:03;;;;;;;;;16.00;15.00;;;;;11.66;71.14;102481.97;5092700;27;49631;-67
2021/12/13 06:21:08;;;;;;;;;10.00;10.00;;;;;11.65;70.76;102482.78;5073873;27;50398;-70
2021/12/13 06:23:36;;;;;;;;;10.50;9.75;;;;;11.42;70.89;102448.50;5087515;27;49721;-67
2021/12/13 06:26:09;;;;;;;;;11.50;11.50;;;;;11.64;70.68;102479.25;5092372;27;49709;-66
2021/12/13 06:28:52;;;;;;;;;8.50;7.00;;;;;11.60;70.37;102481.72;5091701;27;50003;-67
2021/12/13 06:31:20;;;;;;;;;11.25;11.25;;;;;11.32;70.94;102441.03;5092022;27;50612;-66
2021/12/13 06:33:51;;;;;;;;;14.50;11.25;;;;;11.39;70.68;102450.13;5092179;27;49663;-67
2021/12/13 06:36:45;;;;;;;;;11.25;10.25;;;;;11.59;70.89;102493.06;5092050;27;49935;-68
2021/12/13 06:39:23;;;;;;;;;15.25;13.75;;;;;11.50;70.92;102490.94;5091722;27;49917;-67
2021/12/13 06:41:58;;;;;;;;;12.00;11.00;;;;;11.42;70.82;102476.53;5091206;27;50097;-67
2021/12/13 06:44:27;;;;;;;;;11.00;11.00;;;;;11.44;70.49;102491.53;5088092;27;49852;-71
2021/12/13 06:47:12;;;;;;;;;11.50;10.00;;;;;11.18;70.63;102458.81;5091555;27;49751;-67
2021/12/13 06:49:44;;;;;;;;;14.50;10.75;;;;;11.30;70.54;102469.00;5092068;27;50038;-70
2021/12/13 06:52:13;;;;;;;;;11.25;10.25;;;;;11.39;70.64;102485.19;5091788;27;50710;-73
2021/12/13 06:54:47;;;;;;;;;12.00;12.00;;;;;11.31;70.70;102488.31;5090941;27;49902;-72
2021/12/13 06:57:18;;;;;;;;;8.50;6.25;;;;;11.26;70.56;102490.72;5088791;27;49675;-71
2021/12/13 06:59:49;;;;;;;;;11.00;10.00;;;;;11.21;70.40;102483.47;5091542;27;49634;-69
2021/12/13 07:02:19;;;;;;;;;9.00;9.00;;;;;10.99;71.01;102434.25;5089034;27;50356;-68
2021/12/13 07:05:03;;;;;;;;;10.00;7.50;;;;;11.12;70.91;102476.06;5092393;27;49779;-67
2021/12/13 07:07:48;;;;;;;;;14.25;10.25;;;;;11.18;70.81;102482.47;5094586;27;49671;-66
2021/12/13 07:10:40;;;;;;;;;9.00;9.00;;;;;11.03;70.83;102462.50;5091912;27;49802;-66
2021/12/13 07:13:19;;;;;;;;;10.00;9.25;;;;;11.17;71.20;102487.66;5092459;27;50531;-66
2021/12/13 07:16:04;;;;;;;;;8.00;8.00;;;;;11.11;70.98;102474.25;5091539;27;49776;-66
2021/12/13 07:18:41;;;;;;;;;10.75;9.50;;;;;11.23;71.12;102489.69;5091488;27;49595;-65
2021/12/13 07:21:38;;;;;;;;;10.50;8.00;;;;;11.23;70.72;102497.56;5091451;27;49803;-67
2021/12/13 07:24:09;;;;;;;;;12.50;10.75;;;;;11.24;70.66;102492.38;5077645;27;49925;-71
2021/12/13 07:26:53;;;;;;;;;11.00;11.00;;;;;11.11;70.66;102472.53;5091407;27;50029;-72
2021/12/13 07:29:50;;;;;;;;;14.50;11.50;;;;;11.24;70.54;102515.13;5091531;27;49914;-84
2021/12/13 07:32:29;;;;;;;;;6.25;5.75;;;;;11.24;70.52;102502.88;5077638;27;49965;-70
2021/12/13 07:35:00;;;;;;;;;9.75;9.00;;;;;11.25;70.28;102509.03;5091203;27;50592;-67
2021/12/13 07:37:43;;;;;;;;;11.00;10.25;;;;;10.82;70.36;102428.25;5091148;27;49670;-67
2021/12/13 07:40:27;;;;;;;;;11.75;9.50;;;;;11.33;70.54;102505.03;5090724;27;49752;-65
2021/12/13 07:43:21;;;;;;;;;9.25;8.25;;;;;11.27;70.19;102494.22;5072951;27;50020;-71
2021/12/13 07:46:02;;;;;;;;;13.25;9.75;;;;;11.32;70.39;102516.41;5091168;27;49807;-66
2021/12/13 07:48:41;;;;;;;;;7.75;6.50;;;;;11.31;70.30;102507.59;5090905;27;49801;-66
2021/12/13 07:51:11;;;;;;;;;4.00;4.00;;;;;11.30;69.68;102507.53;5090762;27;49989;-87
2021/12/13 07:53:58;;;;;;;;;5.00;3.00;;;;;11.29;69.75;102503.09;5091447;27;49956;-71
2021/12/13 07:56:39;;;;;;;;;6.25;5.25;;;;;11.33;69.13;102505.94;5090933;27;49919;-67
2021/12/13 07:59:32;;;;;;;;;4.25;4.00;;;;;11.36;69.49;102506.06;5093411;27;49745;-67
2021/12/13 08:02:23;;;;;;;;;4.75;3.25;;;;;11.39;69.25;102514.13;5085854;27;51168;-71
2021/12/13 08:05:09;;;;;;;;;5.75;5.75;;;;;11.42;69.47;102506.34;5096625;27;49912;-72
2021/12/13 08:07:46;;;;;;;;;10.00;8.00;;;;;11.36;69.45;102500.81;5081313;27;52344;-78
2021/12/13 08:10:20;;;;;;;;;6.50;6.50;;;;;11.35;69.04;102495.47;5076663;27;50034;-75
2021/12/13 08:12:54;;;;;;;;;8.50;3.00;;;;;11.41;69.26;102501.94;5067619;27;49933;-78
2021/12/13 08:15:24;;;;;;;;;8.50;8.50;;;;;11.42;69.11;102501.09;5084719;27;49919;-71
2021/12/13 08:18:07;;;;;;;;;7.50;6.00;;;;;11.27;69.15;102473.19;5088266;27;51232;-73
2021/12/13 08:20:46;;;;;;;;;5.50;5.50;;;;;11.47;69.32;102511.81;5073866;27;49897;-71
2021/12/13 08:23:17;;;;;;;;;4.75;4.00;;;;;11.50;69.43;102501.44;5109929;27;49790;-70
2021/12/13 08:25:44;;;;;;;;;7.50;6.25;;;;;11.47;69.44;102496.03;5111427;27;49976;-71
2021/12/13 08:28:14;;;;;;;;;5.75;5.00;;;;;11.57;69.42;102505.22;5110304;27;50683;-73
2021/12/13 08:30:53;;;;;;;;;5.00;4.00;;;;;11.60;69.55;102510.66;5092952;27;49677;-71
2021/12/13 08:33:44;;;;;;;;;8.50;7.00;;;;;11.60;69.34;102511.53;5103920;27;49776;-71
2021/12/13 08:36:14;;;;;;;;;4.25;4.25;;;;;11.58;68.72;102493.88;5091451;27;50025;-70
2021/12/13 08:39:06;;;;;;;;;3.75;3.00;;;;;11.57;68.36;102492.06;5089339;27;50508;-71
2021/12/13 08:41:55;;;;;;;;;5.50;3.75;;;;;11.56;68.75;102504.31;5085508;27;49909;-72
2021/12/13 08:44:35;;;;;;;;;3.00;3.00;;;;;11.13;68.55;102422.66;5072503;28;49718;-78
2021/12/13 08:47:07;;;;;;;;;7.25;4.00;;;;;11.65;68.88;102517.88;5053875;28;50253;-73
2021/12/13 08:49:41;;;;;;;;;4.00;4.00;;;;;11.67;69.40;102521.47;5072328;28;49711;-70
2021/12/13 08:52:09;;;;;;;;;3.50;3.50;;;;;11.70;69.21;102510.22;5071356;28;49958;-69
2021/12/13 08:54:51;;;;;;;;;3.50;3.50;;;;;11.62;68.90;102508.97;5073929;28;49862;-74
2021/12/13 08:57:43;;;;;;;;;5.75;4.00;;;;;11.70;68.88;102512.84;5073517;28;49581;-68
2021/12/13 09:00:12;;;;;;;;;8.75;5.75;;;;;11.76;68.79;102507.84;5074418;28;50632;-69
2021/12/13 09:02:41;;;;;;;;;4.25;4.25;;;;;11.79;68.58;102518.53;5073468;28;49784;-69
2021/12/13 09:05:16;;;;;;;;;6.75;5.50;;;;;11.80;68.42;102522.97;5073094;28;49837;-69
2021/12/13 09:07:57;;;;;;;;;5.00;5.00;;;;;11.79;68.42;102525.50;5073463;28;49746;-72
2021/12/13 09:10:38;;;;;;;;;7.00;7.00;;;;;11.57;68.80;102484.19;5073058;28;50432;-75
2021/12/13 09:13:04;;;;;;;;;5.00;4.00;;;;;11.83;68.59;102525.72;5073569;28;49957;-72
2021/12/13 09:15:33;;;;;;;;;7.50;7.50;;;;;11.80;68.98;102511.56;5072837;28;49766;-74
2021/12/13 09:17:58;;;;;;;;;8.50;8.50;;;;;11.91;68.77;102532.22;5072710;28;49746;-72
2021/12/13 09:20:32;;;;;;;;;10.75;10.50;;;;;11.89;68.29;102533.00;5071915;28;50192;-74
2021/12/13 09:23:38;;;;;;;;;7.75;7.75;;;;;11.91;68.17;102537.50;5072391;28;49962;-71
2021/12/13 09:26:09;;;;;;;;;7.00;6.25;;;;;11.64;67.90;102508.19;5048145;28;49826;-69
2021/12/13 09:28:51;;;;;;;;;4.00;3.75;;;;;11.31;68.33;102448.88;5072284;28;49682;-71
2021/12/13 09:31:24;;;;;;;;;4.25;3.25;;;;;11.38;68.63;102466.69;5082594;27;49932;-72
2021/12/13 09:33:57;;;;;;;;;3.00;3.00;;;;;10.84;68.54;102376.66;5082600;27;49757;-72
2021/12/13 09:36:33;;;;;;;;;4.50;4.50;;;;;11.00;68.72;102428.16;5095093;27;49840;-71
2021/12/13 09:39:05;;;;;;;;;7.50;7.50;;;;;10.39;68.66;102330.78;5095320;27;49646;-71
2021/12/13 09:41:38;;;;;;;;;6.25;5.00;;;;;10.87;68.69;102387.31;5071573;27;51496;-71
2021/12/13 09:44:09;;;;;;;;;7.75;7.75;;;;;11.77;68.53;102528.03;5085556;27;49732;-71
2021/12/13 09:46:55;;;;;;;;;5.00;5.00;;;;;11.83;68.17;102538.88;5089640;27;49856;-71
2021/12/13 09:49:36;;;;;;;;;9.25;9.00;;;;;11.87;68.36;102545.19;5089502;27;49912;-72
2021/12/13 09:52:05;;;;;;;;;6.75;6.75;;;;;11.86;68.05;102538.13;5080959;27;49726;-71
2021/12/13 09:54:56;;;;;;;;;6.50;6.50;;;;;10.14;68.26;102271.00;5072323;28;49960;-72
2021/12/13 09:57:33;;;;;;;;;6.00;5.25;;;;;11.71;68.89;102544.47;5072568;28;49709;-71
2021/12/13 10:00:00;;;;;;;;;4.25;4.25;;;;;11.72;68.45;102567.31;5074596;27;49756;-71
2021/12/13 10:02:33;;;;;;;;;8.50;5.00;;;;;10.97;68.52;102422.78;5089302;27;50035;-71
2021/12/13 10:05:09;;;;;;;;;4.75;4.75;;;;;10.04;68.47;102259.19;5092425;27;49852;-71
2021/12/13 10:07:38;;;;;;;;;3.50;3.00;;;;;11.76;68.31;102545.56;5092743;27;49773;-72
2021/12/13 10:10:13;;;;;;;;;2.75;2.75;;;;;11.11;67.21;102447.97;5096663;27;49881;-72
2021/12/13 10:12:44;;;;;;;;;6.25;5.00;;;;;10.69;68.37;102394.34;5108479;27;49753;-71
2021/12/13 10:15:19;;;;;;;;;5.00;5.00;;;;;10.65;67.70;102379.28;5109098;27;49950;-70
2021/12/13 10:17:48;;;;;;;;;7.00;7.00;;;;;10.99;67.31;102456.16;5113339;27;49758;-71
2021/12/13 10:20:23;;;;;;;;;7.75;6.00;;;;;9.98;67.14;102245.75;5113271;27;50018;-71
2021/12/13 10:22:49;;;;;;;;;4.50;4.50;;;;;10.66;67.49;102374.09;5107001;27;50857;-70
2021/12/13 10:25:20;;;;;;;;;7.00;7.00;;;;;10.66;67.13;102354.81;5105218;27;49896;-71
2021/12/13 10:27:47;;;;;;;;;5.00;5.00;;;;;10.05;66.59;102271.47;5094359;27;49939;-70
2021/12/13 10:30:50;;;;;;;;;8.00;8.00;;;;;9.89;66.09;102251.47;5113054;27;49639;-71
2021/12/13 10:33:19;;;;;;;;;6.50;4.75;;;;;10.18;66.16;102288.66;5097113;27;52630;-71
2021/12/13 10:35:45;;;;;;;;;4.75;3.50;;;;;11.13;65.59;102434.06;5112334;27;49875;-69
2021/12/13 10:38:17;;;;;;;;;4.00;4.00;;;;;11.11;65.91;102453.22;5113288;27;49957;-70
2021/12/13 10:40:51;;;;;;;;;3.00;3.00;;;;;11.55;66.20;102512.16;5112915;27;49618;-70
2021/12/13 10:43:25;;;;;;;;;2.00;2.00;;;;;10.20;65.17;102287.00;5112370;27;49848;-70
2021/12/13 10:45:55;;;;;;;;;7.00;5.25;;;;;10.27;65.24;102311.03;5112429;27;49872;-70
2021/12/13 10:48:25;;;;;;;;;7.00;6.00;;;;;10.79;64.88;102404.44;5112567;27;49653;-71
2021/12/13 10:50:59;;;;;;;;;4.00;4.00;;;;;11.61;65.08;102533.50;5112460;27;49826;-71
2021/12/13 10:53:26;;;;;;;;;5.00;5.00;;;;;11.67;65.64;102533.75;5112448;27;49766;-71
2021/12/13 10:55:56;;;;;;;;;7.00;7.00;;;;;11.43;65.54;102489.75;5128312;27;49827;-70
2021/12/13 10:58:26;;;;;;;;;11.00;9.25;;;;;10.72;64.99;102387.53;5111976;27;49841;-71
2021/12/13 11:00:58;;;;;;;;;10.25;8.75;;;;;10.87;65.06;102410.94;5107414;27;49876;-70
2021/12/13 11:03:26;;;;;;;;;6.25;6.25;;;;;10.21;64.45;102320.28;5071490;27;51598;-69
2021/12/13 11:05:55;;;;;;;;;5.00;5.00;;;;;11.51;64.90;102544.44;5079316;27;50043;-70
2021/12/13 11:08:22;;;;;;;;;11.50;8.00;;;;;10.07;65.45;102321.38;5090475;27;49811;-65
2021/12/13 11:13:26;;;;;;;;;6.00;6.00;;;;;10.39;65.68;102352.69;5767957;22;49964;-71
2021/12/13 11:15:56;;;;;;;;;8.50;7.25;;;;;10.76;65.34;102396.44;5049533;28;49920;-74
2021/12/13 11:18:28;;;;;;;;;9.25;7.75;;;;;11.12;64.94;102490.09;5051120;28;49781;-75
2021/12/13 11:21:01;;;;;;;;;9.75;7.25;;;;;10.47;65.16;102392.44;5050893;28;49778;-72
2021/12/13 11:23:27;;;;;;;;;9.00;8.00;;;;;11.29;65.24;102530.31;5032401;28;51680;-71
2021/12/13 11:26:01;;;;;;;;;7.00;7.00;;;;;10.54;64.85;102389.28;5040703;28;49908;-71
2021/12/13 11:28:29;;;;;;;;;12.00;12.00;;;;;10.55;65.42;102389.34;5070513;28;49761;-72
2021/12/13 11:30:55;;;;;;;;;8.50;8.00;;;;;10.29;65.35;102374.09;5068130;28;50066;-73
2021/12/13 11:34:03;;;;;;;;;8.50;8.00;;;;;10.21;65.62;102321.19;5053061;28;50806;-71
2021/12/13 11:36:39;;;;;;;;;4.00;4.00;;;;;10.59;65.59;102441.19;5049133;28;49717;-71
2021/12/13 11:39:28;;;;;;;;;7.75;7.00;;;;;11.39;65.61;102524.63;5049186;28;49905;-70
2021/12/13 11:42:04;;;;;;;;;8.50;8.50;;;;;11.49;65.64;102525.06;5030564;28;49887;-71
2021/12/13 11:44:32;;;;;;;;;11.50;8.75;;;;;11.49;65.17;102527.69;5030332;28;49760;-71
2021/12/13 11:47:13;;;;;;;;;8.00;8.00;;;;;11.48;65.20;102521.50;5030446;28;49894;-70
2021/12/13 11:50:08;;;;;;;;;8.00;8.00;;;;;11.37;65.52;102517.47;5056823;28;49814;-70
2021/12/13 11:52:45;;;;;;;;;8.25;6.75;;;;;10.83;65.14;102448.44;5070924;28;49931;-70
2021/12/13 11:55:43;;;;;;;;;13.00;10.75;;;;;11.01;66.31;102506.19;5070688;28;50854;-71
2021/12/13 11:58:23;;;;;;;;;9.00;9.00;;;;;11.12;66.30;102510.22;5069541;28;49876;-72
2021/12/13 12:01:03;;;;;;;;;9.75;9.00;;;;;11.12;66.52;102512.84;5070694;28;49873;-71
2021/12/13 12:03:54;;;;;;;;;10.00;9.00;;;;;9.35;66.22;102197.28;5070777;28;49711;-70